Time;durP1;ratioP1;P1;durP2;ratioP2;P2;SDS_P1;SDS_P2;PMS_P1;PMS_P2;Temp;Humidity;BMP_temperature;BMP_pressure;BME280_temperature;BME280_humidity;BME280_pressure;Samples;Min_cycle;Max_cycle;Signal;HPM_P1;HPM_P2
2023/07/23 00:02:05;;;;;;;15.00;14.10;;;19.50;99.90;;;;;;6243825;23;20775;-75
2023/07/23 00:04:32;;;;;;;15.60;14.60;;;19.50;99.90;;;;;;6243997;23;20411;-74
2023/07/23 00:07:00;;;;;;;15.07;13.97;;;19.50;99.90;;;;;;6243308;23;20914;-75
2023/07/23 00:09:26;;;;;;;15.87;14.77;;;19.50;99.90;;;;;;6243871;23;20470;-75
2023/07/23 00:11:53;;;;;;;15.37;14.37;;;19.50;99.90;;;;;;6243564;22;20446;-73
2023/07/23 00:14:20;;;;;;;16.57;15.30;;;19.50;99.90;;;;;;6243469;23;20436;-75
2023/07/23 00:16:47;;;;;;;15.80;14.70;;;19.50;99.90;;;;;;6243498;23;20898;-74
2023/07/23 00:19:19;;;;;;;16.53;15.23;;;19.50;99.90;;;;;;6243875;23;20404;-74
2023/07/23 00:21:46;;;;;;;15.00;14.00;;;19.50;99.90;;;;;;6243631;23;20426;-74
2023/07/23 00:24:14;;;;;;;15.53;14.60;;;19.50;99.90;;;;;;6243358;23;20532;-75
2023/07/23 00:26:40;;;;;;;16.00;14.83;;;19.50;99.90;;;;;;6243749;23;20404;-75
2023/07/23 00:29:07;;;;;;;14.67;13.67;;;19.50;99.90;;;;;;6243555;23;20455;-75
2023/07/23 00:31:34;;;;;;;16.10;15.00;;;19.40;99.90;;;;;;6243323;23;20921;-75
2023/07/23 00:34:03;;;;;;;15.60;14.40;;;19.40;99.90;;;;;;6243380;23;20416;-75
2023/07/23 00:36:29;;;;;;;15.67;14.57;;;19.40;99.90;;;;;;6243448;23;20416;-75
2023/07/23 00:38:56;;;;;;;16.03;14.83;;;19.40;99.90;;;;;;6243472;23;20423;-74
2023/07/23 00:41:24;;;;;;;16.20;15.13;;;19.30;99.90;;;;;;6243567;23;20414;-75
2023/07/23 00:43:51;;;;;;;15.40;14.30;;;19.30;99.90;;;;;;6243666;23;20485;-75
2023/07/23 00:46:18;;;;;;;16.20;14.87;;;19.20;99.90;;;;;;6243230;23;20879;-74
2023/07/23 00:48:44;;;;;;;17.73;15.00;;;19.20;99.90;;;;;;6243039;23;20716;-74
2023/07/23 00:51:11;;;;;;;15.70;14.50;;;19.10;99.90;;;;;;6243319;23;20415;-75
2023/07/23 00:53:38;;;;;;;15.47;14.47;;;19.10;99.90;;;;;;6243433;23;20415;-74
2023/07/23 00:56:05;;;;;;;15.13;14.13;;;19.00;99.90;;;;;;6243080;23;20896;-74
2023/07/23 00:58:34;;;;;;;15.23;14.20;;;19.00;99.90;;;;;;6243688;23;20503;-74
2023/07/23 01:01:01;;;;;;;16.13;15.00;;;18.90;99.90;;;;;;6243537;23;20411;-75
2023/07/23 01:03:28;;;;;;;15.80;14.47;;;18.90;99.90;;;;;;6243325;23;20404;-75
2023/07/23 01:05:59;;;;;;;16.60;15.20;;;18.80;99.90;;;;;;6243425;23;20734;-73
2023/07/23 01:08:27;;;;;;;15.90;14.63;;;18.80;99.90;;;;;;6243278;23;20435;-73
2023/07/23 01:10:54;;;;;;;19.23;14.67;;;18.80;99.90;;;;;;6243436;23;20412;-72
2023/07/23 01:13:21;;;;;;;16.83;15.53;;;18.70;99.90;;;;;;6243074;22;20446;-72
2023/07/23 01:15:51;;;;;;;15.87;14.70;;;18.70;99.90;;;;;;6243321;23;20419;-73
2023/07/23 01:18:19;;;;;;;16.40;14.90;;;18.70;99.90;;;;;;6243099;23;20411;-73
2023/07/23 01:20:45;;;;;;;16.43;14.93;;;18.60;99.90;;;;;;6243228;23;20621;-74
2023/07/23 01:23:14;;;;;;;16.97;15.57;;;18.60;99.90;;;;;;6243078;23;20435;-74
2023/07/23 01:25:40;;;;;;;17.20;15.90;;;18.60;99.90;;;;;;6243195;23;20408;-74
2023/07/23 01:28:07;;;;;;;16.10;14.40;;;18.60;99.90;;;;;;6242509;23;20984;-73
2023/07/23 01:30:34;;;;;;;16.30;14.80;;;18.60;99.90;;;;;;6243086;23;20411;-73
2023/07/23 01:33:03;;;;;;;15.33;14.07;;;18.60;99.90;;;;;;6242996;23;20519;-73
2023/07/23 01:35:29;;;;;;;16.57;15.17;;;18.50;99.90;;;;;;6243230;23;20787;-73
2023/07/23 01:37:58;;;;;;;16.60;15.20;;;18.50;99.90;;;;;;6243204;23;20404;-74
2023/07/23 01:40:26;;;;;;;17.57;15.07;;;18.50;99.90;;;;;;6242964;23;20404;-74
2023/07/23 01:42:53;;;;;;;17.33;15.83;;;18.40;99.90;;;;;;6242860;23;20418;-74
2023/07/23 01:45:20;;;;;;;15.80;14.40;;;18.40;99.90;;;;;;6242976;23;20408;-74
2023/07/23 01:47:46;;;;;;;16.80;15.20;;;18.30;99.90;;;;;;6242593;23;20962;-74
2023/07/23 01:50:13;;;;;;;16.50;15.10;;;18.30;99.90;;;;;;6242938;23;20415;-74
2023/07/23 01:52:40;;;;;;;17.77;16.17;;;18.30;99.90;;;;;;6242313;23;20911;-74
2023/07/23 01:55:08;;;;;;;17.10;15.53;;;18.30;99.90;;;;;;6243021;23;20408;-75
2023/07/23 01:57:36;;;;;;;18.00;16.10;;;18.20;99.90;;;;;;6242918;23;20720;-74
2023/07/23 02:00:04;;;;;;;18.13;16.20;;;18.10;99.90;;;;;;6242847;23;20411;-74
2023/07/23 02:02:30;;;;;;;18.00;16.30;;;18.10;99.90;;;;;;6242740;23;20745;-73
2023/07/23 02:04:57;;;;;;;18.90;17.10;;;18.10;99.90;;;;;;6242131;23;20414;-73
2023/07/23 02:07:24;;;;;;;17.17;15.43;;;18.00;99.90;;;;;;6242366;23;20419;-74
2023/07/23 02:09:51;;;;;;;18.00;16.10;;;17.90;99.90;;;;;;6242337;23;20891;-74
2023/07/23 02:12:18;;;;;;;18.70;16.10;;;17.90;99.90;;;;;;6242849;22;20428;-74
2023/07/23 02:14:46;;;;;;;18.27;16.37;;;17.80;99.90;;;;;;6242234;23;20443;-75
2023/07/23 02:17:13;;;;;;;18.97;15.93;;;17.70;99.90;;;;;;6242576;23;20404;-73
2023/07/23 02:19:40;;;;;;;18.23;16.23;;;17.60;99.90;;;;;;6242529;23;20400;-74
2023/07/23 02:22:06;;;;;;;19.97;16.80;;;17.60;99.90;;;;;;6242486;23;20462;-74
2023/07/23 02:24:33;;;;;;;19.80;17.30;;;17.60;99.90;;;;;;6242588;23;20411;-74
2023/07/23 02:27:00;;;;;;;20.70;17.17;;;17.50;99.90;;;;;;6242111;23;20415;-75
2023/07/23 02:29:27;;;;;;;20.77;16.60;;;17.50;99.90;;;;;;6242418;23;20431;-74
2023/07/23 02:31:55;;;;;;;22.90;16.77;;;17.40;99.90;;;;;;6242861;23;20411;-73
2023/07/23 02:34:21;;;;;;;23.73;16.70;;;17.50;99.90;;;;;;6242044;23;21117;-75
2023/07/23 02:36:48;;;;;;;26.63;16.17;;;17.40;99.90;;;;;;6242550;23;20404;-74
2023/07/23 02:39:15;;;;;;;24.60;16.50;;;17.40;99.90;;;;;;6242104;23;20458;-74
2023/07/23 02:41:41;;;;;;;25.87;16.60;;;17.40;99.90;;;;;;6242402;23;20521;-74
2023/07/23 02:44:08;;;;;;;26.63;17.27;;;17.40;99.90;;;;;;6242397;23;20411;-74
2023/07/23 02:46:35;;;;;;;27.53;16.23;;;17.30;99.90;;;;;;6242102;23;20848;-74
2023/07/23 02:49:03;;;;;;;26.87;16.20;;;17.30;99.90;;;;;;6242481;23;20482;-74
2023/07/23 02:51:30;;;;;;;26.37;16.77;;;17.30;99.90;;;;;;6242019;23;20899;-75
2023/07/23 02:53:57;;;;;;;27.47;16.40;;;17.20;99.90;;;;;;6242524;23;20412;-75
2023/07/23 02:56:23;;;;;;;27.00;16.10;;;17.20;99.90;;;;;;6242476;23;20407;-73
2023/07/23 02:58:50;;;;;;;32.20;16.20;;;17.10;99.90;;;;;;6242224;23;20404;-73
2023/07/23 03:01:17;;;;;;;30.30;17.40;;;17.10;99.90;;;;;;6242328;23;20411;-74
2023/07/23 03:03:47;;;;;;;29.97;16.37;;;17.10;99.90;;;;;;6241172;23;20408;-75
2023/07/23 03:06:16;;;;;;;29.20;16.83;;;17.00;99.90;;;;;;6241130;23;20408;-75
2023/07/23 03:08:43;;;;;;;32.00;16.30;;;17.00;99.90;;;;;;6240097;23;20466;-74
2023/07/23 03:11:09;;;;;;;33.13;17.63;;;17.00;99.90;;;;;;6240967;22;20416;-74
2023/07/23 03:13:36;;;;;;;31.33;16.00;;;17.00;99.90;;;;;;6240978;23;20436;-74
2023/07/23 03:16:04;;;;;;;34.40;16.80;;;17.00;99.90;;;;;;6240926;23;20774;-74
2023/07/23 03:18:30;;;;;;;38.40;17.60;;;16.90;99.90;;;;;;6241134;23;20408;-72
2023/07/23 03:20:57;;;;;;;36.00;16.27;;;16.90;99.90;;;;;;6240950;23;20411;-74
2023/07/23 03:23:26;;;;;;;36.37;16.63;;;16.90;99.90;;;;;;6241339;23;20424;-74
2023/07/23 03:25:52;;;;;;;39.10;18.80;;;16.90;99.90;;;;;;6240984;23;20407;-73
2023/07/23 03:28:19;;;;;;;40.10;17.23;;;16.80;99.90;;;;;;6240974;23;20447;-74
2023/07/23 03:30:46;;;;;;;38.07;18.33;;;16.80;99.90;;;;;;6241048;23;20737;-74
2023/07/23 03:33:13;;;;;;;39.80;17.67;;;16.80;99.90;;;;;;6241257;23;20427;-75
2023/07/23 03:35:39;;;;;;;38.97;16.87;;;16.80;99.90;;;;;;6240860;23;20416;-74
2023/07/23 03:38:06;;;;;;;40.20;16.47;;;16.80;99.90;;;;;;6240834;23;20818;-74
2023/07/23 03:40:34;;;;;;;41.57;17.20;;;16.80;99.90;;;;;;6240561;23;20408;-73
2023/07/23 03:43:01;;;;;;;44.40;17.90;;;16.80;99.90;;;;;;6241145;23;20414;-74
2023/07/23 03:45:27;;;;;;;41.57;17.90;;;16.70;99.90;;;;;;6240816;23;20404;-73
2023/07/23 03:47:54;;;;;;;46.33;17.63;;;16.70;99.90;;;;;;6240580;23;20408;-73
2023/07/23 03:50:21;;;;;;;42.10;17.43;;;16.70;99.90;;;;;;6241407;23;20438;-75
2023/07/23 03:52:47;;;;;;;44.50;18.80;;;16.80;99.90;;;;;;6241545;23;20404;-75
2023/07/23 03:55:14;;;;;;;42.93;17.60;;;16.80;99.90;;;;;;6241618;23;20411;-75
2023/07/23 03:57:42;;;;;;;46.37;18.13;;;16.70;99.90;;;;;;6241351;23;20407;-74
2023/07/23 04:00:10;;;;;;;42.73;17.67;;;16.60;99.90;;;;;;6241053;23;20911;-74
2023/07/23 04:02:37;;;;;;;45.07;17.90;;;16.70;99.90;;;;;;6238861;23;20506;-75
2023/07/23 04:05:07;;;;;;;45.97;18.80;;;16.70;99.90;;;;;;6240231;23;20934;-74
2023/07/23 04:07:33;;;;;;;46.40;18.43;;;16.60;99.90;;;;;;6240934;23;20404;-71
2023/07/23 04:10:03;;;;;;;47.10;18.10;;;16.70;99.90;;;;;;6241326;23;20447;-71
2023/07/23 04:12:33;;;;;;;45.67;18.43;;;16.70;99.90;;;;;;6240790;22;21132;-72
2023/07/23 04:15:01;;;;;;;47.03;18.67;;;16.60;99.90;;;;;;6240383;23;20451;-72
2023/07/23 04:17:28;;;;;;;47.30;17.90;;;16.60;99.90;;;;;;6236896;23;20926;-72
2023/07/23 04:19:55;;;;;;;48.83;17.73;;;16.60;99.90;;;;;;6238803;23;20892;-71
2023/07/23 04:22:21;;;;;;;47.67;17.03;;;16.60;99.90;;;;;;6240404;23;20404;-70
2023/07/23 04:24:48;;;;;;;47.07;16.90;;;16.70;99.90;;;;;;6240736;23;20412;-69
2023/07/23 04:27:15;;;;;;;48.10;18.10;;;16.70;99.90;;;;;;6241705;23;20407;-70
2023/07/23 04:29:41;;;;;;;48.00;18.07;;;16.70;99.90;;;;;;6242392;23;20474;-70
2023/07/23 04:32:10;;;;;;;48.10;18.00;;;16.70;99.90;;;;;;6242494;23;20929;-70
2023/07/23 04:34:37;;;;;;;50.10;18.53;;;16.70;99.90;;;;;;6242481;23;20407;-70
2023/07/23 04:37:06;;;;;;;48.70;17.50;;;16.60;99.90;;;;;;6242875;23;20404;-70
2023/07/23 04:39:31;;;;;;;48.23;17.30;;;16.70;99.90;;;;;;6242589;23;20474;-70
2023/07/23 04:41:58;;;;;;;46.73;16.50;;;16.80;99.90;;;;;;6242920;23;20400;-69
2023/07/23 04:44:25;;;;;;;47.27;16.30;;;17.20;99.90;;;;;;6242365;23;20641;-70
2023/07/23 04:46:51;;;;;;;47.77;16.50;;;17.60;99.90;;;;;;6242396;23;20704;-70
2023/07/23 04:49:19;;;;;;;48.80;17.20;;;18.00;99.90;;;;;;6242464;23;20439;-69
2023/07/23 04:51:46;;;;;;;49.47;17.53;;;18.20;99.90;;;;;;6242057;23;20472;-70
2023/07/23 04:54:13;;;;;;;47.90;16.67;;;18.40;99.90;;;;;;6242117;23;20923;-70
2023/07/23 04:56:40;;;;;;;48.57;16.20;;;18.40;99.90;;;;;;6242271;23;20740;-70
2023/07/23 04:59:07;;;;;;;49.10;15.93;;;18.30;99.90;;;;;;6241703;23;20892;-69
2023/07/23 05:01:34;;;;;;;50.30;16.30;;;18.50;99.90;;;;;;6242238;23;20443;-70
2023/07/23 05:04:00;;;;;;;48.70;16.03;;;18.60;99.90;;;;;;6242011;23;20434;-69
2023/07/23 05:06:28;;;;;;;47.87;16.20;;;18.40;99.90;;;;;;6242127;23;20414;-69
2023/07/23 05:08:55;;;;;;;48.97;16.67;;;18.60;99.90;;;;;;6242079;23;20455;-69
2023/07/23 05:11:22;;;;;;;48.67;16.60;;;18.80;99.90;;;;;;6241656;22;20412;-69
2023/07/23 05:13:48;;;;;;;50.37;16.87;;;19.10;99.90;;;;;;6241373;23;21205;-69
2023/07/23 05:16:15;;;;;;;51.33;16.90;;;19.40;99.90;;;;;;6242040;23;20821;-70
2023/07/23 05:18:42;;;;;;;50.70;16.07;;;19.60;99.90;;;;;;6242143;23;20404;-69
2023/07/23 05:21:08;;;;;;;48.40;16.10;;;19.60;99.90;;;;;;6241985;23;20481;-69
2023/07/23 05:23:37;;;;;;;49.37;17.50;;;19.90;99.90;;;;;;6242233;23;20746;-71
2023/07/23 05:26:04;;;;;;;48.80;16.03;;;20.30;99.90;;;;;;6242001;23;20412;-70
2023/07/23 05:28:30;;;;;;;49.40;16.70;;;20.40;99.90;;;;;;6241936;23;20408;-70
2023/07/23 05:30:58;;;;;;;49.80;16.60;;;20.20;99.90;;;;;;6242248;23;20407;-70
2023/07/23 05:33:24;;;;;;;48.57;16.30;;;20.30;99.90;;;;;;6242011;23;20436;-69
2023/07/23 05:35:52;;;;;;;49.97;16.90;;;20.70;99.90;;;;;;6241734;23;20400;-70
2023/07/23 05:38:19;;;;;;;49.20;16.40;;;21.10;99.90;;;;;;6241153;23;20423;-70
2023/07/23 05:40:54;;;;;;;48.33;16.10;;;21.40;99.90;;;;;;6241544;23;20399;-69
2023/07/23 05:43:21;;;;;;;49.60;16.20;;;21.40;99.90;;;;;;6241463;23;20395;-72
2023/07/23 05:45:48;;;;;;;50.13;14.03;;;21.60;99.90;;;;;;6241821;23;20494;-71
2023/07/23 05:48:14;;;;;;;50.17;16.30;;;21.90;99.20;;;;;;6241422;23;20414;-71
2023/07/23 05:50:41;;;;;;;48.67;16.30;;;22.10;98.70;;;;;;6241230;23;20446;-71
2023/07/23 05:53:08;;;;;;;48.97;15.60;;;22.30;97.70;;;;;;6241752;23;20407;-71
2023/07/23 05:55:34;;;;;;;50.37;16.93;;;22.50;97.30;;;;;;6241588;23;20410;-71
2023/07/23 05:58:02;;;;;;;49.77;15.63;;;22.80;96.90;;;;;;6241642;23;20419;-71
2023/07/23 06:00:29;;;;;;;50.20;16.03;;;22.80;96.70;;;;;;6241677;23;20481;-71
2023/07/23 06:02:56;;;;;;;49.50;16.17;;;23.30;95.80;;;;;;6241517;23;20712;-71
2023/07/23 06:05:23;;;;;;;50.33;16.53;;;23.60;95.00;;;;;;6241988;23;20411;-72
2023/07/23 06:07:49;;;;;;;53.63;17.70;;;23.80;94.60;;;;;;6241723;23;20428;-72
2023/07/23 06:10:16;;;;;;;48.93;16.30;;;24.00;93.60;;;;;;6241741;23;20443;-71
2023/07/23 06:12:43;;;;;;;49.37;15.80;;;24.10;93.60;;;;;;6241631;22;20442;-72
2023/07/23 06:15:11;;;;;;;49.30;16.50;;;24.40;93.20;;;;;;6242068;23;20411;-72
2023/07/23 06:17:38;;;;;;;49.90;17.47;;;24.80;91.80;;;;;;6241686;23;20892;-72
2023/07/23 06:20:06;;;;;;;50.67;15.40;;;25.30;90.90;;;;;;6241539;23;20399;-72
2023/07/23 06:22:32;;;;;;;48.73;16.37;;;26.10;89.30;;;;;;6241763;23;20711;-72
2023/07/23 06:24:59;;;;;;;53.53;16.57;;;26.70;85.60;;;;;;6241791;23;20419;-71
2023/07/23 06:27:26;;;;;;;49.30;16.33;;;27.10;82.10;;;;;;6241732;23;20410;-70
2023/07/23 06:29:52;;;;;;;49.57;16.93;;;27.30;80.60;;;;;;6241624;23;20939;-71
2023/07/23 06:32:21;;;;;;;49.20;16.40;;;27.00;79.50;;;;;;6242003;23;20491;-71
2023/07/23 06:34:47;;;;;;;52.20;17.30;;;27.00;80.20;;;;;;6241480;23;20895;-71
2023/07/23 06:37:14;;;;;;;49.80;16.87;;;27.30;77.90;;;;;;6241775;23;20415;-71
2023/07/23 06:39:41;;;;;;;50.20;16.83;;;27.10;79.60;;;;;;6241697;23;20759;-72
2023/07/23 06:42:07;;;;;;;49.70;16.33;;;27.00;79.90;;;;;;6241432;23;20410;-72
2023/07/23 06:44:34;;;;;;;50.23;16.50;;;27.10;78.80;;;;;;6241734;23;20432;-72
2023/07/23 06:47:01;;;;;;;48.77;16.10;;;27.20;79.40;;;;;;6241599;23;20739;-71
2023/07/23 06:49:30;;;;;;;50.17;16.73;;;27.60;76.90;;;;;;6241031;23;20440;-72
2023/07/23 06:51:56;;;;;;;48.17;16.80;;;28.10;75.30;;;;;;6241500;23;20431;-72
2023/07/23 06:54:24;;;;;;;49.67;17.53;;;28.00;71.90;;;;;;6241610;23;20411;-72
2023/07/23 06:56:51;;;;;;;48.77;16.27;;;27.60;74.30;;;;;;6241408;23;20438;-71
2023/07/23 06:59:18;;;;;;;49.37;17.07;;;27.60;73.40;;;;;;6241450;23;20784;-72
2023/07/23 07:01:45;;;;;;;51.00;16.80;;;28.10;72.40;;;;;;6241333;23;20415;-72
2023/07/23 07:04:12;;;;;;;49.60;17.50;;;28.70;69.90;;;;;;6241498;23;20408;-72
2023/07/23 07:06:40;;;;;;;50.10;15.97;;;28.90;69.80;;;;;;6240911;23;20902;-72
2023/07/23 07:09:06;;;;;;;50.30;16.20;;;29.50;68.40;;;;;;6241282;23;20410;-72
2023/07/23 07:11:33;;;;;;;49.03;16.50;;;29.60;66.60;;;;;;6241501;22;20427;-72
2023/07/23 07:14:00;;;;;;;50.90;16.87;;;28.80;66.80;;;;;;6241159;23;20477;-72
2023/07/23 07:16:26;;;;;;;49.43;17.67;;;28.50;68.00;;;;;;6241426;23;20408;-71
2023/07/23 07:18:54;;;;;;;49.30;16.50;;;28.40;69.10;;;;;;6241435;23;20472;-72
2023/07/23 07:21:21;;;;;;;49.70;15.60;;;28.20;68.70;;;;;;6241248;23;20404;-72
2023/07/23 07:23:49;;;;;;;49.90;16.47;;;28.10;68.60;;;;;;6241155;23;20411;-72
2023/07/23 07:26:15;;;;;;;50.20;16.40;;;28.40;67.80;;;;;;6241335;23;20416;-72
2023/07/23 07:28:42;;;;;;;49.67;16.60;;;28.90;67.10;;;;;;6241145;23;20412;-72
2023/07/23 07:31:11;;;;;;;48.90;15.90;;;29.40;65.50;;;;;;6241000;23;20835;-72
2023/07/23 07:33:39;;;;;;;49.07;16.33;;;30.30;63.50;;;;;;6241269;23;20450;-72
2023/07/23 07:36:05;;;;;;;48.97;17.40;;;31.00;61.60;;;;;;6241233;23;20412;-72
2023/07/23 07:38:32;;;;;;;52.17;18.37;;;31.10;59.90;;;;;;6241327;23;20415;-73
2023/07/23 07:41:01;;;;;;;49.60;17.50;;;31.50;58.80;;;;;;6241697;23;20753;-72
2023/07/23 07:43:28;;;;;;;49.20;17.57;;;31.00;59.30;;;;;;6241393;23;20418;-72
2023/07/23 07:45:59;;;;;;;48.73;16.50;;;32.00;58.60;;;;;;6241098;23;20408;-72
2023/07/23 07:48:26;;;;;;;51.93;16.67;;;32.10;56.30;;;;;;6240617;23;20396;-72
2023/07/23 07:50:58;;;;;;;51.27;17.67;;;31.60;56.60;;;;;;6240235;23;20755;-71
2023/07/23 07:53:24;;;;;;;49.87;16.73;;;32.00;56.10;;;;;;6240697;23;20400;-71
2023/07/23 07:55:51;;;;;;;50.27;18.30;;;31.60;55.90;;;;;;6238713;23;20404;-73
2023/07/23 07:58:24;;;;;;;48.83;16.17;;;31.00;57.10;;;;;;6241353;23;20717;-71
2023/07/23 08:00:54;;;;;;;49.27;17.13;;;30.50;58.00;;;;;;6241034;23;20907;-72
2023/07/23 08:03:22;;;;;;;49.40;16.50;;;29.90;58.50;;;;;;6242543;23;20408;-73
2023/07/23 08:05:49;;;;;;;48.60;17.07;;;29.80;59.20;;;;;;6242097;23;20412;-71
2023/07/23 08:08:19;;;;;;;49.23;17.87;;;30.30;58.60;;;;;;6242268;23;20872;-73
2023/07/23 08:10:47;;;;;;;48.97;16.30;;;30.30;58.90;;;;;;6242409;23;20446;-71
2023/07/23 08:13:15;;;;;;;49.07;16.00;;;30.40;58.50;;;;;;6242071;22;20443;-72
2023/07/23 08:15:43;;;;;;;52.13;16.53;;;30.60;58.10;;;;;;6242379;23;20392;-72
2023/07/23 08:18:10;;;;;;;49.10;15.60;;;31.20;57.70;;;;;;6242342;23;20891;-72
2023/07/23 08:20:38;;;;;;;49.00;15.80;;;31.60;56.10;;;;;;6242730;23;20411;-72
2023/07/23 08:23:05;;;;;;;48.53;16.23;;;30.80;57.00;;;;;;6242731;23;20415;-72
2023/07/23 08:25:33;;;;;;;48.77;16.07;;;30.80;58.10;;;;;;6242740;23;20518;-72
2023/07/23 08:28:00;;;;;;;49.57;16.50;;;31.10;57.10;;;;;;6242890;23;20787;-72
2023/07/23 08:30:28;;;;;;;48.97;16.27;;;31.30;56.50;;;;;;6242553;23;20554;-72
2023/07/23 08:32:57;;;;;;;48.97;17.20;;;30.60;57.80;;;;;;6242689;23;20411;-72
2023/07/23 08:35:25;;;;;;;49.77;16.50;;;30.80;57.80;;;;;;6242189;23;20435;-72
2023/07/23 08:37:52;;;;;;;48.20;16.40;;;30.70;58.30;;;;;;6242349;23;20407;-72
2023/07/23 08:40:20;;;;;;;49.20;16.63;;;31.00;58.30;;;;;;6242964;23;20730;-72
2023/07/23 08:43:18;;;;;;;49.37;16.60;;;31.80;57.00;;;;;;6242481;23;20407;-72
2023/07/23 08:46:21;;;;;;;48.73;17.40;;;32.50;55.60;;;;;;6242680;23;20706;-72
2023/07/23 08:49:11;;;;;;;50.10;16.70;;;32.30;55.60;;;;;;6242861;23;20439;-72
2023/07/23 08:51:45;;;;;;;48.53;16.53;;;32.60;54.70;;;;;;6231050;23;20443;-72
2023/07/23 08:54:13;;;;;;;48.00;16.20;;;33.20;54.20;;;;;;6242591;23;20427;-72
2023/07/23 08:56:41;;;;;;;49.93;16.53;;;34.00;52.30;;;;;;6242407;23;20408;-72
2023/07/23 08:59:08;;;;;;;49.17;16.90;;;33.30;53.00;;;;;;6242770;23;20415;-72
2023/07/23 09:01:36;;;;;;;48.70;16.20;;;33.20;52.90;;;;;;6242187;23;20415;-72
2023/07/23 09:04:05;;;;;;;49.20;16.80;;;33.10;53.40;;;;;;6242304;23;20408;-72
2023/07/23 09:06:33;;;;;;;48.40;15.87;;;33.00;53.30;;;;;;6241943;23;20470;-72
2023/07/23 09:09:05;;;;;;;48.60;16.90;;;33.00;53.70;;;;;;6242952;23;20408;-72
2023/07/23 09:11:32;;;;;;;47.73;14.70;;;32.60;53.80;;;;;;6242658;22;20455;-72
2023/07/23 09:14:02;;;;;;;49.90;17.10;;;32.90;54.10;;;;;;6242153;23;20435;-72
2023/07/23 09:16:29;;;;;;;49.23;17.60;;;33.30;53.50;;;;;;6242863;23;20403;-71
2023/07/23 09:18:56;;;;;;;48.17;15.93;;;33.90;52.40;;;;;;6242352;23;20951;-71
2023/07/23 09:21:24;;;;;;;48.20;16.40;;;34.40;51.10;;;;;;6242867;23;20416;-72
2023/07/23 09:23:53;;;;;;;48.67;16.73;;;33.70;51.60;;;;;;6242516;23;20495;-72
2023/07/23 09:26:21;;;;;;;49.80;17.00;;;33.80;51.40;;;;;;6242296;23;20617;-72
2023/07/23 09:28:48;;;;;;;48.60;16.60;;;33.00;52.00;;;;;;6242656;23;20407;-72
2023/07/23 09:31:26;;;;;;;49.17;17.20;;;32.70;52.40;;;;;;6242473;23;20443;-72
2023/07/23 09:33:54;;;;;;;48.30;16.53;;;32.50;53.00;;;;;;6242699;23;20400;-72
2023/07/23 09:36:22;;;;;;;49.53;16.23;;;31.70;53.50;;;;;;6242204;23;20416;-72
2023/07/23 09:39:01;;;;;;;48.43;15.87;;;31.00;55.20;;;;;;6242089;23;20412;-72
2023/07/23 09:41:30;;;;;;;48.10;16.07;;;30.80;55.60;;;;;;6242267;23;20888;-72
2023/07/23 09:44:00;;;;;;;49.90;17.17;;;30.80;56.00;;;;;;6242638;23;21080;-72
2023/07/23 09:46:27;;;;;;;48.47;15.77;;;31.10;55.40;;;;;;6242625;23;20424;-72
2023/07/23 09:48:54;;;;;;;48.70;16.60;;;31.10;55.60;;;;;;6242226;23;20735;-73
2023/07/23 09:51:22;;;;;;;48.97;16.33;;;31.50;55.30;;;;;;6242224;23;20448;-73
2023/07/23 09:53:49;;;;;;;48.30;16.30;;;32.10;54.10;;;;;;6242531;23;20439;-72
2023/07/23 09:56:19;;;;;;;48.43;17.17;;;32.30;52.80;;;;;;6242259;23;20734;-73
2023/07/23 09:58:48;;;;;;;48.13;16.63;;;32.20;52.50;;;;;;6242386;23;20404;-73
2023/07/23 10:01:17;;;;;;;50.07;18.60;;;32.50;51.90;;;;;;6242827;23;20732;-71
2023/07/23 10:03:45;;;;;;;48.80;17.20;;;32.80;51.30;;;;;;6242359;23;20439;-72
2023/07/23 10:06:12;;;;;;;48.70;16.73;;;33.40;51.20;;;;;;6242459;23;20419;-73
2023/07/23 10:08:43;;;;;;;48.93;17.83;;;33.70;50.20;;;;;;6242302;23;20458;-71
2023/07/23 10:11:11;;;;;;;48.77;16.10;;;33.70;49.80;;;;;;6241982;22;20428;-73
2023/07/23 10:13:41;;;;;;;48.00;15.70;;;32.90;50.90;;;;;;6241574;23;20497;-72
2023/07/23 10:16:10;;;;;;;47.63;15.97;;;33.40;49.70;;;;;;6242296;23;20408;-73
2023/07/23 10:18:41;;;;;;;48.30;15.30;;;33.30;49.40;;;;;;6242035;23;20720;-73
2023/07/23 10:21:09;;;;;;;48.90;17.23;;;33.40;48.40;;;;;;6242338;23;20392;-73
2023/07/23 10:23:38;;;;;;;48.80;17.67;;;33.40;48.70;;;;;;6242211;23;20412;-72
2023/07/23 10:26:21;;;;;;;49.20;17.27;;;33.00;48.00;;;;;;6241856;23;20412;-73
2023/07/23 10:28:52;;;;;;;50.73;17.33;;;33.30;48.40;;;;;;6242103;23;20400;-73
2023/07/23 10:31:20;;;;;;;48.60;17.73;;;34.10;47.80;;;;;;6241914;23;20443;-73
2023/07/23 10:33:49;;;;;;;49.60;19.53;;;34.30;47.10;;;;;;6241403;23;20411;-70
2023/07/23 10:36:16;;;;;;;49.47;18.13;;;33.90;47.00;;;;;;6242048;23;20412;-72
2023/07/23 10:38:42;;;;;;;49.00;18.43;;;33.80;47.40;;;;;;6242060;23;20431;-73
2023/07/23 10:41:09;;;;;;;48.97;17.80;;;34.70;46.60;;;;;;6242162;23;20415;-73
2023/07/23 10:43:43;;;;;;;49.47;18.30;;;35.50;46.10;;;;;;6241674;23;20916;-71
2023/07/23 10:46:13;;;;;;;49.27;18.00;;;36.30;44.50;;;;;;6241938;23;20400;-72
2023/07/23 10:48:42;;;;;;;54.83;20.47;;;36.00;44.00;;;;;;6241507;23;20412;-72
2023/07/23 10:51:09;;;;;;;49.90;19.20;;;35.30;45.00;;;;;;6241791;23;20818;-72
2023/07/23 10:53:40;;;;;;;49.47;18.47;;;34.70;45.60;;;;;;6241965;23;20419;-71
2023/07/23 10:56:26;;;;;;;48.87;17.67;;;34.50;46.10;;;;;;6241822;23;20388;-71
2023/07/23 10:58:56;;;;;;;49.60;17.07;;;33.50;47.00;;;;;;6241919;23;20388;-71
2023/07/23 11:01:26;;;;;;;49.67;18.83;;;33.50;47.60;;;;;;6241597;23;20385;-71
2023/07/23 11:04:00;;;;;;;49.30;17.70;;;34.80;46.80;;;;;;6241914;23;20419;-71
2023/07/23 11:06:28;;;;;;;50.80;18.87;;;36.00;43.60;;;;;;6241873;23;20387;-71
2023/07/23 11:08:58;;;;;;;50.47;19.33;;;35.70;43.70;;;;;;6241920;23;20404;-71
2023/07/23 11:11:39;;;;;;;48.93;18.47;;;35.70;43.60;;;;;;6240914;22;20478;-71
2023/07/23 11:14:19;;;;;;;49.80;18.43;;;35.00;44.10;;;;;;6240646;23;20442;-71
2023/07/23 11:16:49;;;;;;;51.07;17.90;;;34.20;45.50;;;;;;6241861;23;20434;-72
2023/07/23 11:19:18;;;;;;;49.47;17.30;;;33.90;46.00;;;;;;6241602;23;20411;-73
2023/07/23 11:21:50;;;;;;;49.00;17.10;;;33.40;46.00;;;;;;6241996;23;20407;-70
2023/07/23 11:24:17;;;;;;;54.80;18.20;;;33.50;46.70;;;;;;6241545;23;20470;-73
2023/07/23 11:26:44;;;;;;;49.07;17.63;;;33.20;47.00;;;;;;6241718;23;20466;-71
2023/07/23 11:29:11;;;;;;;49.57;18.07;;;33.60;46.80;;;;;;6241475;23;20412;-73
2023/07/23 11:31:38;;;;;;;49.70;18.20;;;34.50;45.30;;;;;;6241556;23;20447;-73
2023/07/23 11:34:07;;;;;;;49.60;18.97;;;34.40;45.60;;;;;;6241747;23;20415;-71
2023/07/23 11:36:35;;;;;;;50.17;19.07;;;35.10;45.70;;;;;;6243474;23;20930;-72
2023/07/23 11:39:02;;;;;;;49.90;19.23;;;36.00;43.90;;;;;;6244473;23;20415;-72
2023/07/23 11:41:32;;;;;;;50.37;19.50;;;35.50;43.30;;;;;;6244671;23;20433;-72
2023/07/23 11:44:00;;;;;;;49.37;18.77;;;36.10;43.10;;;;;;6244958;23;20408;-72
2023/07/23 11:46:27;;;;;;;49.87;18.47;;;35.20;43.80;;;;;;6244420;23;20422;-72
2023/07/23 11:48:55;;;;;;;49.67;18.93;;;35.80;43.20;;;;;;6244819;23;20416;-71
2023/07/23 11:51:23;;;;;;;49.17;19.00;;;36.20;42.10;;;;;;6244842;23;20443;-72
2023/07/23 11:53:52;;;;;;;49.97;19.37;;;36.60;41.50;;;;;;6244911;23;21078;-72
2023/07/23 11:56:23;;;;;;;50.97;19.63;;;36.60;41.80;;;;;;6244832;23;20777;-72
2023/07/23 11:58:49;;;;;;;49.67;20.37;;;35.80;41.70;;;;;;6244871;23;20392;-72
2023/07/23 12:01:17;;;;;;;51.07;19.20;;;35.00;41.60;;;;;;6244883;23;20396;-72
2023/07/23 12:03:44;;;;;;;50.10;18.60;;;34.20;43.50;;;;;;6245134;23;20474;-72
2023/07/23 12:06:14;;;;;;;50.13;19.03;;;33.80;43.60;;;;;;6244899;23;20408;-71
2023/07/23 12:08:44;;;;;;;49.17;18.20;;;33.20;44.30;;;;;;6244910;23;20469;-72
2023/07/23 12:11:12;;;;;;;50.50;18.30;;;33.10;44.80;;;;;;6244476;22;20813;-72
2023/07/23 12:13:47;;;;;;;50.37;17.80;;;33.60;43.90;;;;;;6244494;23;20443;-71
2023/07/23 12:16:33;;;;;;;49.90;19.03;;;33.90;43.50;;;;;;6244871;23;20407;-71
2023/07/23 12:19:05;;;;;;;49.40;17.70;;;33.60;43.30;;;;;;6244786;23;20402;-72
2023/07/23 12:21:35;;;;;;;50.20;19.40;;;33.50;44.10;;;;;;6244658;23;20423;-71
2023/07/23 12:24:20;;;;;;;50.50;17.73;;;33.50;43.80;;;;;;6244643;23;20419;-72
2023/07/23 12:26:48;;;;;;;51.20;17.40;;;33.00;44.60;;;;;;6244596;23;20414;-71
2023/07/23 12:29:15;;;;;;;49.73;17.90;;;32.80;45.40;;;;;;6244392;23;20412;-70
2023/07/23 12:31:44;;;;;;;50.00;17.67;;;32.60;44.20;;;;;;6244767;23;20439;-71
2023/07/23 12:34:11;;;;;;;50.10;17.50;;;32.50;44.80;;;;;;6244725;23;20430;-71